Time;durP1;ratioP1;P1;durP2;ratioP2;P2;SDS_P1;SDS_P2;PMS_P1;PMS_P2;Temp;Humidity;BMP_temperature;BMP_pressure;BME280_temperature;BME280_humidity;BME280_pressure;Samples;Min_cycle;Max_cycle;Signal;HPM_P1;HPM_P2
2023/05/07 00:00:08;;;;;;;;;;;15.40;57.40;;;;;;5027069;28;20070;-76
2023/05/07 00:02:34;;;;;;;;;;;15.30;57.40;;;;;;5027639;28;20019;-76
2023/05/07 00:04:59;;;;;;;;;;;15.30;57.50;;;;;;5008926;28;20464;-76
2023/05/07 00:07:25;;;;;;;;;;;15.30;57.40;;;;;;5025852;28;20805;-77
2023/05/07 00:09:50;;;;;;;;;;;15.30;57.50;;;;;;5006234;28;19927;-77
2023/05/07 00:12:16;;;;;;;;;;;15.30;57.50;;;;;;5026022;28;20007;-77
2023/05/07 00:14:41;;;;;;;;;;;15.20;57.50;;;;;;4993126;28;20613;-77
2023/05/07 00:17:07;;;;;;;;;;;15.20;57.50;;;;;;5007336;28;19928;-77
2023/05/07 00:19:32;;;;;;;;;;;15.20;57.50;;;;;;4993055;28;19970;-77
2023/05/07 00:21:58;;;;;;;;;;;15.20;57.50;;;;;;5009124;28;19927;-77
2023/05/07 00:24:23;;;;;;;;;;;15.20;57.70;;;;;;5007882;28;20504;-77
2023/05/07 00:26:49;;;;;;;;;;;15.10;57.60;;;;;;4996038;28;20401;-77
2023/05/07 00:29:14;;;;;;;;;;;15.10;57.60;;;;;;5027951;28;19936;-77
2023/05/07 00:31:39;;;;;;;;;;;15.10;57.60;;;;;;5027015;28;19980;-77
2023/05/07 00:34:05;;;;;;;;;;;15.10;57.60;;;;;;5027607;28;20015;-77
2023/05/07 00:36:31;;;;;;;;;;;15.10;57.60;;;;;;5027299;28;19928;-77
2023/05/07 00:38:56;;;;;;;;;;;15.10;57.70;;;;;;4995947;28;19953;-77
2023/05/07 00:41:22;;;;;;;;;;;15.10;57.70;;;;;;5025031;28;19928;-77
2023/05/07 00:43:47;;;;;;;;;;;15.10;57.70;;;;;;5026386;28;19928;-77
2023/05/07 00:46:13;;;;;;;;;;;15.10;57.70;;;;;;5026728;28;20287;-77
2023/05/07 00:48:38;;;;;;;;;;;15.00;57.70;;;;;;5014457;28;19928;-77
2023/05/07 00:51:04;;;;;;;;;;;15.00;57.70;;;;;;5012516;28;19925;-76
2023/05/07 00:53:30;;;;;;;;;;;15.00;57.70;;;;;;5016721;28;19978;-77
2023/05/07 00:55:55;;;;;;;;;;;15.00;57.80;;;;;;5029877;28;19928;-76
2023/05/07 00:58:21;;;;;;;;;;;15.00;57.80;;;;;;5009594;28;19925;-77
2023/05/07 01:00:46;;;;;;;;;;;15.00;57.80;;;;;;5009712;28;20343;-76
2023/05/07 01:03:12;;;;;;;;;;;15.00;57.80;;;;;;5012819;28;19982;-77
2023/05/07 01:05:37;;;;;;;;;;;15.00;57.80;;;;;;5011518;28;19944;-77
2023/05/07 01:08:03;;;;;;;;;;;14.90;57.80;;;;;;5013561;28;20400;-77
2023/05/07 01:10:30;;;;;;;;;;;14.90;57.80;;;;;;5030555;28;19975;-76
2023/05/07 01:12:55;;;;;;;;;;;15.00;57.90;;;;;;4994599;28;19925;-76
2023/05/07 01:15:21;;;;;;;;;;;14.90;57.90;;;;;;5012644;28;19920;-77
2023/05/07 01:17:46;;;;;;;;;;;14.90;57.90;;;;;;4997638;28;20367;-76
2023/05/07 01:20:12;;;;;;;;;;;14.90;57.90;;;;;;5009384;28;19921;-76
2023/05/07 01:22:38;;;;;;;;;;;14.90;57.90;;;;;;4997638;28;19922;-76
2023/05/07 01:25:03;;;;;;;;;;;14.90;57.90;;;;;;5010796;28;20423;-77
2023/05/07 01:27:29;;;;;;;;;;;14.90;58.00;;;;;;5031461;28;20706;-77
2023/05/07 01:29:55;;;;;;;;;;;14.90;58.00;;;;;;5011548;28;20371;-76
2023/05/07 01:32:25;;;;;;;;;;;14.80;57.90;;;;;;5011997;28;19963;-77
2023/05/07 01:34:51;;;;;;;;;;;14.80;58.00;;;;;;5011332;28;19921;-77
2023/05/07 01:37:16;;;;;;;;;;;14.90;58.00;;;;;;4998500;28;19933;-76
2023/05/07 01:39:42;;;;;;;;;;;14.80;58.00;;;;;;5010434;28;20362;-77
2023/05/07 01:42:07;;;;;;;;;;;14.80;58.00;;;;;;5007185;28;19928;-77
2023/05/07 01:44:33;;;;;;;;;;;14.80;58.00;;;;;;5012609;28;20400;-76
2023/05/07 01:46:58;;;;;;;;;;;14.80;58.10;;;;;;5025744;28;19928;-76
2023/05/07 01:49:24;;;;;;;;;;;14.80;58.10;;;;;;5011856;28;19925;-77
2023/05/07 01:51:50;;;;;;;;;;;14.80;58.10;;;;;;5023812;28;19917;-77
2023/05/07 01:54:16;;;;;;;;;;;14.70;58.10;;;;;;5011509;28;19956;-76
2023/05/07 01:56:41;;;;;;;;;;;14.80;58.10;;;;;;5009544;28;19995;-76
2023/05/07 01:59:07;;;;;;;;;;;14.70;58.10;;;;;;5010066;28;19928;-77
2023/05/07 02:01:32;;;;;;;;;;;14.80;58.10;;;;;;4997627;28;19932;-76
2023/05/07 02:03:58;;;;;;;;;;;14.70;58.20;;;;;;5007701;28;19921;-77
2023/05/07 02:06:23;;;;;;;;;;;14.70;58.20;;;;;;5011926;28;19921;-77
2023/05/07 02:08:49;;;;;;;;;;;14.70;58.20;;;;;;5021643;28;20466;-77
2023/05/07 02:11:14;;;;;;;;;;;14.70;58.20;;;;;;5010901;28;20007;-76
2023/05/07 02:13:41;;;;;;;;;;;14.70;58.20;;;;;;5007889;28;19917;-77
2023/05/07 02:16:06;;;;;;;;;;;14.70;58.20;;;;;;5025300;28;19967;-76
2023/05/07 02:18:32;;;;;;;;;;;14.60;58.20;;;;;;5028358;28;20008;-77
2023/05/07 02:20:57;;;;;;;;;;;14.60;58.20;;;;;;5008678;28;20011;-77
2023/05/07 02:23:22;;;;;;;;;;;14.60;58.30;;;;;;5006114;28;19920;-76
2023/05/07 02:25:48;;;;;;;;;;;14.60;58.30;;;;;;5026546;28;19927;-76
2023/05/07 02:28:13;;;;;;;;;;;14.50;58.30;;;;;;5030108;28;19979;-76
2023/05/07 02:30:40;;;;;;;;;;;14.50;58.30;;;;;;5013061;28;19920;-77
2023/05/07 02:33:06;;;;;;;;;;;14.60;58.40;;;;;;4997121;28;20019;-77
2023/05/07 02:35:31;;;;;;;;;;;14.50;58.30;;;;;;5012557;28;20406;-76
2023/05/07 02:37:57;;;;;;;;;;;14.50;58.40;;;;;;5024114;28;19925;-77
2023/05/07 02:40:22;;;;;;;;;;;14.50;58.40;;;;;;5011400;28;20054;-76
2023/05/07 02:42:48;;;;;;;;;;;14.50;58.40;;;;;;5006004;28;19924;-76
2023/05/07 02:45:14;;;;;;;;;;;14.50;58.50;;;;;;5024487;28;19920;-77
2023/05/07 02:47:39;;;;;;;;;;;14.40;58.40;;;;;;4992714;28;19929;-76
2023/05/07 02:50:05;;;;;;;;;;;14.40;58.50;;;;;;5006815;28;20602;-76
2023/05/07 02:52:31;;;;;;;;;;;14.40;58.50;;;;;;5009828;28;19989;-76
2023/05/07 02:54:56;;;;;;;;;;;14.40;58.50;;;;;;5010812;28;19921;-77
2023/05/07 02:57:22;;;;;;;;;;;14.40;59.20;;;;;;5010824;28;19921;-76
2023/05/07 02:59:47;;;;;;;;;;;14.40;58.60;;;;;;5026971;28;19927;-76
2023/05/07 03:02:12;;;;;;;;;;;14.40;58.60;;;;;;5022537;28;19963;-77
2023/05/07 03:04:39;;;;;;;;;;;14.30;58.60;;;;;;5026039;28;19925;-77
2023/05/07 03:07:04;;;;;;;;;;;14.30;58.60;;;;;;4992867;28;19928;-77
2023/05/07 03:09:30;;;;;;;;;;;14.30;58.60;;;;;;5009150;28;19921;-77
2023/05/07 03:11:56;;;;;;;;;;;14.30;58.60;;;;;;5009708;28;20837;-76
2023/05/07 03:14:21;;;;;;;;;;;14.30;58.60;;;;;;5010123;28;19921;-77
2023/05/07 03:16:47;;;;;;;;;;;14.30;58.70;;;;;;5008065;28;19921;-77
2023/05/07 03:19:12;;;;;;;;;;;14.30;58.70;;;;;;5008765;28;19964;-76
2023/05/07 03:21:38;;;;;;;;;;;14.30;58.70;;;;;;5025371;28;19932;-77
2023/05/07 03:24:03;;;;;;;;;;;14.20;58.70;;;;;;5008222;28;19921;-77
2023/05/07 03:26:29;;;;;;;;;;;14.20;58.70;;;;;;5009664;28;19921;-77
2023/05/07 03:28:55;;;;;;;;;;;14.20;58.80;;;;;;5008447;28;19929;-76
2023/05/07 03:31:20;;;;;;;;;;;14.20;58.80;;;;;;4994278;28;20414;-76
2023/05/07 03:33:52;;;;;;;;;;;14.20;58.80;;;;;;4997892;28;19921;-76
2023/05/07 03:36:18;;;;;;;;;;;14.20;58.90;;;;;;5027907;28;19960;-77
2023/05/07 03:38:43;;;;;;;;;;;14.10;58.80;;;;;;5009426;28;19960;-76
2023/05/07 03:41:09;;;;;;;;;;;14.10;58.80;;;;;;5008477;28;19983;-77
2023/05/07 03:43:34;;;;;;;;;;;14.10;58.80;;;;;;5012769;28;19928;-77
2023/05/07 03:46:00;;;;;;;;;;;14.10;58.90;;;;;;5027391;28;19988;-77
2023/05/07 03:48:25;;;;;;;;;;;14.10;58.90;;;;;;4994219;28;20378;-77
2023/05/07 03:50:51;;;;;;;;;;;14.10;58.90;;;;;;5009218;28;19960;-76
2023/05/07 03:53:16;;;;;;;;;;;14.10;58.90;;;;;;5009836;28;19932;-76
2023/05/07 03:55:42;;;;;;;;;;;14.00;58.90;;;;;;5006433;28;20319;-77
2023/05/07 03:58:07;;;;;;;;;;;14.00;58.90;;;;;;5012162;28;19961;-77
2023/05/07 04:00:38;;;;;;;;;;;14.00;59.00;;;;;;4994897;28;19921;-76
2023/05/07 04:03:04;;;;;;;;;;;14.00;59.00;;;;;;5007628;28;19964;-76
2023/05/07 04:05:29;;;;;;;;;;;14.00;59.00;;;;;;5030283;28;20258;-76
2023/05/07 04:07:55;;;;;;;;;;;14.00;59.00;;;;;;5010848;28;20678;-76
2023/05/07 04:10:20;;;;;;;;;;;14.00;59.00;;;;;;5009165;28;19917;-77
2023/05/07 04:12:46;;;;;;;;;;;14.00;59.00;;;;;;5027325;28;20372;-77
2023/05/07 04:15:11;;;;;;;;;;;14.00;59.00;;;;;;4983579;28;19924;-76
2023/05/07 04:17:37;;;;;;;;;;;14.00;59.00;;;;;;5027089;28;20427;-77
2023/05/07 04:20:02;;;;;;;;;;;14.00;59.00;;;;;;4994755;28;19991;-76
2023/05/07 04:22:28;;;;;;;;;;;14.00;59.00;;;;;;5015699;28;20585;-77
2023/05/07 04:24:54;;;;;;;;;;;14.00;59.00;;;;;;5012498;28;20980;-76
2023/05/07 04:27:20;;;;;;;;;;;14.00;59.10;;;;;;5014654;28;19921;-76
2023/05/07 04:29:47;;;;;;;;;;;14.00;59.10;;;;;;5013552;28;19928;-76
2023/05/07 04:32:13;;;;;;;;;;;14.10;59.10;;;;;;5014333;28;20584;-76
2023/05/07 04:34:38;;;;;;;;;;;14.10;59.10;;;;;;5028293;28;19929;-77
2023/05/07 04:37:04;;;;;;;;;;;14.10;59.10;;;;;;5012426;28;19921;-76
2023/05/07 04:39:29;;;;;;;;;;;14.10;59.10;;;;;;5011051;28;19921;-76
2023/05/07 04:41:55;;;;;;;;;;;14.10;59.10;;;;;;4997623;28;20438;-76
2023/05/07 04:44:20;;;;;;;;;;;14.10;59.10;;;;;;5027942;28;19975;-77
2023/05/07 04:46:46;;;;;;;;;;;14.10;59.10;;;;;;5027821;28;20000;-77
2023/05/07 04:49:11;;;;;;;;;;;14.10;59.10;;;;;;5030116;28;19921;-76
2023/05/07 04:51:38;;;;;;;;;;;14.10;59.10;;;;;;5010343;28;19924;-76
2023/05/07 04:54:03;;;;;;;;;;;14.10;59.20;;;;;;5010661;28;20027;-76
2023/05/07 04:56:29;;;;;;;;;;;14.10;59.10;;;;;;5002444;28;20610;-76
2023/05/07 04:58:55;;;;;;;;;;;14.10;59.00;;;;;;5015236;28;19933;-76
2023/05/07 05:01:21;;;;;;;;;;;14.20;59.10;;;;;;5037666;28;19921;-76
2023/05/07 05:03:46;;;;;;;;;;;14.20;59.10;;;;;;5017226;28;19928;-77
2023/05/07 05:06:12;;;;;;;;;;;14.20;59.10;;;;;;5017885;28;19921;-77
2023/05/07 05:08:37;;;;;;;;;;;14.30;59.10;;;;;;5014369;28;21181;-77
2023/05/07 05:11:03;;;;;;;;;;;14.30;59.10;;;;;;5012395;28;19948;-77
2023/05/07 05:13:28;;;;;;;;;;;14.30;59.10;;;;;;5014682;28;19921;-76
2023/05/07 05:15:53;;;;;;;;;;;14.30;59.10;;;;;;5030566;28;19924;-76
2023/05/07 05:18:20;;;;;;;;;;;14.30;59.10;;;;;;5000404;28;19956;-76
2023/05/07 05:20:45;;;;;;;;;;;14.40;59.10;;;;;;5011597;28;19986;-77
2023/05/07 05:23:11;;;;;;;;;;;14.40;59.10;;;;;;5028726;28;19925;-76
2023/05/07 05:25:37;;;;;;;;;;;14.40;59.10;;;;;;5028710;28;19932;-77
2023/05/07 05:28:02;;;;;;;;;;;14.40;59.00;;;;;;5008552;28;19928;-77
2023/05/07 05:30:28;;;;;;;;;;;14.40;59.00;;;;;;5014290;28;20391;-76
2023/05/07 05:32:53;;;;;;;;;;;14.50;59.10;;;;;;5027345;28;20040;-77
2023/05/07 05:35:18;;;;;;;;;;;14.50;59.10;;;;;;5012991;28;20303;-77
2023/05/07 05:37:44;;;;;;;;;;;14.50;59.00;;;;;;5013096;28;19920;-76
2023/05/07 05:40:10;;;;;;;;;;;14.50;59.00;;;;;;4994861;28;19924;-76
2023/05/07 05:42:35;;;;;;;;;;;14.50;59.00;;;;;;4998996;28;19917;-77
2023/05/07 05:45:01;;;;;;;;;;;14.60;59.00;;;;;;5011325;28;19925;-76
2023/05/07 05:47:26;;;;;;;;;;;14.60;59.00;;;;;;5025801;28;19928;-76
2023/05/07 05:49:51;;;;;;;;;;;14.60;59.00;;;;;;5008468;28;19924;-76
2023/05/07 05:52:17;;;;;;;;;;;14.60;59.00;;;;;;5026791;28;19956;-77
2023/05/07 05:54:42;;;;;;;;;;;14.70;59.00;;;;;;5012611;28;19955;-76
2023/05/07 05:57:08;;;;;;;;;;;14.80;59.00;;;;;;5011374;28;19931;-77
2023/05/07 05:59:33;;;;;;;;;;;14.80;59.00;;;;;;5027737;28;20359;-77
2023/05/07 06:01:59;;;;;;;;;;;14.80;59.00;;;;;;5006553;28;19952;-76
2023/05/07 06:04:24;;;;;;;;;;;14.80;59.00;;;;;;5012190;28;19929;-76
2023/05/07 06:06:50;;;;;;;;;;;14.90;59.00;;;;;;5010035;28;19932;-77
2023/05/07 06:09:15;;;;;;;;;;;14.90;59.00;;;;;;5008405;28;19929;-77
2023/05/07 06:11:41;;;;;;;;;;;14.90;58.90;;;;;;5018140;28;20004;-76
2023/05/07 06:14:06;;;;;;;;;;;15.00;58.90;;;;;;5027799;28;20328;-76
2023/05/07 06:16:32;;;;;;;;;;;15.00;58.90;;;;;;5013004;28;19931;-76
2023/05/07 06:18:57;;;;;;;;;;;15.00;58.80;;;;;;4994241;28;19987;-77
2023/05/07 06:21:23;;;;;;;;;;;15.10;58.80;;;;;;5015001;28;20402;-76
2023/05/07 06:23:48;;;;;;;;;;;15.10;58.80;;;;;;5010643;28;19921;-77
2023/05/07 06:26:14;;;;;;;;;;;15.20;58.80;;;;;;4994421;28;19921;-76
2023/05/07 06:28:39;;;;;;;;;;;15.20;58.80;;;;;;5011642;28;20020;-77
2023/05/07 06:31:11;;;;;;;;;;;15.20;58.80;;;;;;5029829;28;20128;-77
2023/05/07 06:33:37;;;;;;;;;;;15.20;58.70;;;;;;5027912;28;20488;-77
2023/05/07 06:36:02;;;;;;;;;;;15.30;58.80;;;;;;5026783;28;20303;-77
2023/05/07 06:38:28;;;;;;;;;;;15.30;58.70;;;;;;5027322;28;19968;-76
2023/05/07 06:40:55;;;;;;;;;;;15.40;58.70;;;;;;5027341;28;22295;-77
2023/05/07 06:43:21;;;;;;;;;;;15.50;58.70;;;;;;5010472;28;19916;-76
2023/05/07 06:45:46;;;;;;;;;;;15.50;58.70;;;;;;5010480;28;19923;-77
2023/05/07 06:48:12;;;;;;;;;;;15.60;58.70;;;;;;5024080;28;19924;-76
2023/05/07 06:50:37;;;;;;;;;;;15.60;58.60;;;;;;5025103;28;19921;-76
2023/05/07 06:53:04;;;;;;;;;;;15.70;58.60;;;;;;5007571;28;21471;-77
2023/05/07 06:55:30;;;;;;;;;;;15.70;58.50;;;;;;4994630;28;19963;-77
2023/05/07 06:57:57;;;;;;;;;;;15.80;58.50;;;;;;5010586;28;19960;-77
2023/05/07 07:00:23;;;;;;;;;;;15.90;58.50;;;;;;4998960;28;20268;-77
2023/05/07 07:02:48;;;;;;;;;;;16.00;58.40;;;;;;5029234;28;19939;-77
2023/05/07 07:05:14;;;;;;;;;;;16.00;58.40;;;;;;5014672;28;19921;-77
2023/05/07 07:07:40;;;;;;;;;;;16.10;58.30;;;;;;5013833;28;19933;-76
2023/05/07 07:10:05;;;;;;;;;;;16.20;58.30;;;;;;5009121;28;20376;-77
2023/05/07 07:12:31;;;;;;;;;;;16.30;58.20;;;;;;5011448;28;20657;-77
2023/05/07 07:14:56;;;;;;;;;;;16.40;58.20;;;;;;5009477;28;19921;-77
2023/05/07 07:17:22;;;;;;;;;;;16.40;58.10;;;;;;4990930;28;20375;-77
2023/05/07 07:19:47;;;;;;;;;;;16.50;58.00;;;;;;5010216;28;19975;-76
2023/05/07 07:22:13;;;;;;;;;;;16.50;58.00;;;;;;5009765;28;19928;-76
2023/05/07 07:24:38;;;;;;;;;;;16.60;58.00;;;;;;4993561;28;19924;-76
2023/05/07 07:27:03;;;;;;;;;;;16.70;58.00;;;;;;5026286;28;19920;-76
2023/05/07 07:29:30;;;;;;;;;;;16.70;57.90;;;;;;4996796;28;19936;-76
2023/05/07 07:31:55;;;;;;;;;;;16.70;57.90;;;;;;5006894;28;19960;-76
2023/05/07 07:34:21;;;;;;;;;;;16.80;57.90;;;;;;4997779;28;19925;-76
2023/05/07 07:36:46;;;;;;;;;;;16.90;57.90;;;;;;5025984;28;19917;-75
2023/05/07 07:39:12;;;;;;;;;;;16.90;57.80;;;;;;5027886;28;19922;-76
2023/05/07 07:41:37;;;;;;;;;;;16.90;57.80;;;;;;5027283;28;19921;-76
2023/05/07 07:44:03;;;;;;;;;;;17.00;57.80;;;;;;4994543;28;19921;-76
2023/05/07 07:46:29;;;;;;;;;;;17.00;57.70;;;;;;4985352;28;19948;-76
2023/05/07 07:48:54;;;;;;;;;;;17.10;57.90;;;;;;5023472;28;20873;-76
2023/05/07 07:51:20;;;;;;;;;;;17.20;57.70;;;;;;5025277;28;19944;-76
2023/05/07 07:53:45;;;;;;;;;;;17.20;57.60;;;;;;5012504;28;19995;-77
2023/05/07 07:56:11;;;;;;;;;;;17.20;57.60;;;;;;5022994;28;19952;-76
2023/05/07 07:58:37;;;;;;;;;;;17.30;57.60;;;;;;5024723;28;19928;-76
2023/05/07 08:01:03;;;;;;;;;;;17.30;57.60;;;;;;5027544;28;19921;-76
2023/05/07 08:03:31;;;;;;;;;;;17.30;57.60;;;;;;5011703;28;20284;-77
2023/05/07 08:05:57;;;;;;;;;;;17.40;57.60;;;;;;5028445;28;19970;-77
2023/05/07 08:08:22;;;;;;;;;;;17.50;57.60;;;;;;5027575;28;19928;-77
2023/05/07 08:10:49;;;;;;;;;;;17.50;57.50;;;;;;5010903;28;20007;-76
2023/05/07 08:13:15;;;;;;;;;;;17.60;57.50;;;;;;5026792;28;20571;-77
2023/05/07 08:15:40;;;;;;;;;;;17.60;57.50;;;;;;5009057;28;19927;-77
2023/05/07 08:18:06;;;;;;;;;;;17.60;57.40;;;;;;5006338;28;19971;-77
2023/05/07 08:20:31;;;;;;;;;;;17.70;57.40;;;;;;5009850;28;19917;-77
2023/05/07 08:22:57;;;;;;;;;;;17.70;57.40;;;;;;5026988;28;19967;-77
2023/05/07 08:25:22;;;;;;;;;;;17.80;57.40;;;;;;5023492;28;19921;-77
2023/05/07 08:27:48;;;;;;;;;;;17.80;57.30;;;;;;5027752;28;19951;-76
2023/05/07 08:30:13;;;;;;;;;;;17.90;57.30;;;;;;5024453;28;20392;-76
2023/05/07 08:32:39;;;;;;;;;;;17.90;57.20;;;;;;5026000;28;19921;-76
2023/05/07 08:35:05;;;;;;;;;;;18.00;57.20;;;;;;4991544;28;19920;-77
2023/05/07 08:37:30;;;;;;;;;;;18.10;57.20;;;;;;5026611;28;19948;-76
2023/05/07 08:39:55;;;;;;;;;;;18.20;57.10;;;;;;5005576;28;20375;-77
2023/05/07 08:42:22;;;;;;;;;;;18.30;57.00;;;;;;5005649;28;19925;-77
2023/05/07 08:44:48;;;;;;;;;;;18.40;57.00;;;;;;5021499;28;19917;-77
2023/05/07 08:47:13;;;;;;;;;;;18.60;56.90;;;;;;5009392;28;19925;-76
2023/05/07 08:49:39;;;;;;;;;;;18.70;56.90;;;;;;5026360;28;19925;-76
2023/05/07 08:52:04;;;;;;;;;;;18.80;57.50;;;;;;5025139;28;19925;-76
2023/05/07 08:54:30;;;;;;;;;;;18.80;56.60;;;;;;5026085;28;20624;-76
2023/05/07 08:56:55;;;;;;;;;;;18.90;56.60;;;;;;4991571;28;19978;-76
2023/05/07 08:59:20;;;;;;;;;;;19.00;56.60;;;;;;5026500;28;20409;-76
2023/05/07 09:01:46;;;;;;;;;;;19.10;56.50;;;;;;4991808;28;19978;-76
2023/05/07 09:04:12;;;;;;;;;;;19.20;56.40;;;;;;5009514;28;19925;-77
2023/05/07 09:06:41;;;;;;;;;;;19.40;56.40;;;;;;5011058;28;19925;-76
2023/05/07 09:09:07;;;;;;;;;;;19.50;56.20;;;;;;4997415;28;19929;-76
2023/05/07 09:11:32;;;;;;;;;;;19.60;56.20;;;;;;5017669;28;19931;-77
2023/05/07 09:14:00;;;;;;;;;;;19.70;56.10;;;;;;5002560;28;19929;-77
2023/05/07 09:16:26;;;;;;;;;;;19.80;56.00;;;;;;5034801;28;19924;-77
2023/05/07 09:18:52;;;;;;;;;;;20.00;55.90;;;;;;5018173;28;19917;-76
2023/05/07 09:21:17;;;;;;;;;;;20.20;55.80;;;;;;5014242;28;19932;-77
2023/05/07 09:23:43;;;;;;;;;;;20.40;55.70;;;;;;5014395;28;19947;-77
2023/05/07 09:26:11;;;;;;;;;;;20.60;55.50;;;;;;5010796;28;19924;-77
2023/05/07 09:28:44;;;;;;;;;;;20.70;55.30;;;;;;5028826;28;19925;-77
2023/05/07 09:31:10;;;;;;;;;;;20.90;55.20;;;;;;5011382;28;19925;-76
2023/05/07 09:33:35;;;;;;;;;;;21.00;55.10;;;;;;5031517;28;19978;-77
2023/05/07 09:36:07;;;;;;;;;;;21.20;55.00;;;;;;5015239;28;19925;-77
2023/05/07 09:38:33;;;;;;;;;;;21.40;54.90;;;;;;5013415;28;20469;-77
2023/05/07 09:41:05;;;;;;;;;;;21.50;54.80;;;;;;5012467;28;19921;-77
2023/05/07 09:43:34;;;;;;;;;;;21.60;54.70;;;;;;5013850;28;20030;-77
2023/05/07 09:46:03;;;;;;;;;;;21.60;54.60;;;;;;4995074;28;19920;-78
2023/05/07 09:48:29;;;;;;;;;;;21.70;54.50;;;;;;5014498;28;19924;-77
2023/05/07 09:50:57;;;;;;;;;;;21.80;54.50;;;;;;4996621;28;19925;-77
2023/05/07 09:53:22;;;;;;;;;;;21.90;54.60;;;;;;5014386;28;20865;-77
2023/05/07 09:55:47;;;;;;;;;;;22.00;54.50;;;;;;5011961;28;19921;-77
2023/05/07 09:58:13;;;;;;;;;;;22.10;54.40;;;;;;4998395;28;19929;-77
2023/05/07 10:00:39;;;;;;;;;;;22.20;54.30;;;;;;4997608;28;20390;-78
2023/05/07 10:03:05;;;;;;;;;;;22.30;54.20;;;;;;5028998;28;19932;-77
2023/05/07 10:05:30;;;;;;;;;;;22.50;54.20;;;;;;5015965;28;19921;-78
2023/05/07 10:07:57;;;;;;;;;;;22.70;54.10;;;;;;5007355;28;19981;-77
2023/05/07 10:10:22;;;;;;;;;;;22.90;53.90;;;;;;5011637;28;20558;-77
2023/05/07 10:12:47;;;;;;;;;;;23.10;53.70;;;;;;5013214;28;19931;-76
2023/05/07 10:15:14;;;;;;;;;;;23.30;53.60;;;;;;4997360;28;20366;-77
2023/05/07 10:17:40;;;;;;;;;;;23.40;53.40;;;;;;5013189;28;19921;-76
2023/05/07 10:20:06;;;;;;;;;;;23.50;53.30;;;;;;5012306;28;20030;-76
2023/05/07 10:22:32;;;;;;;;;;;23.60;53.20;;;;;;5013452;28;20007;-77
2023/05/07 10:24:58;;;;;;;;;;;23.70;53.20;;;;;;5012315;28;20040;-77
2023/05/07 10:27:24;;;;;;;;;;;23.80;53.70;;;;;;5011968;28;20011;-77
2023/05/07 10:30:04;;;;;;;;;;;23.90;53.00;;;;;;5025181;28;19925;-78
2023/05/07 10:32:32;;;;;;;;;;;24.10;53.00;;;;;;5027863;28;19917;-77
2023/05/07 10:34:59;;;;;;;;;;;24.30;52.90;;;;;;4996140;28;19916;-77
2023/05/07 10:37:24;;;;;;;;;;;24.40;52.70;;;;;;5011263;28;19921;-77
2023/05/07 10:39:49;;;;;;;;;;;24.60;52.50;;;;;;5010565;28;19928;-78
2023/05/07 10:42:15;;;;;;;;;;;24.80;52.40;;;;;;5013734;28;19920;-78
2023/05/07 10:44:41;;;;;;;;;;;25.10;52.30;;;;;;5025605;28;19978;-77
2023/05/07 10:47:09;;;;;;;;;;;25.30;52.20;;;;;;5012801;28;19927;-77
2023/05/07 10:49:38;;;;;;;;;;;25.50;52.10;;;;;;5014127;28;19924;-78
2023/05/07 10:52:14;;;;;;;;;;;25.70;51.80;;;;;;5028560;28;19928;-77
2023/05/07 10:54:40;;;;;;;;;;;26.00;51.70;;;;;;5002800;28;19920;-77
2023/05/07 10:57:24;;;;;;;;;;;26.20;51.60;;;;;;5009382;28;19928;-77
2023/05/07 10:59:50;;;;;;;;;;;26.30;51.40;;;;;;5026790;28;19921;-77
2023/05/07 11:02:16;;;;;;;;;;;26.50;51.30;;;;;;5008845;28;19924;-77
2023/05/07 11:04:41;;;;;;;;;;;26.70;51.20;;;;;;5010740;28;19974;-76
2023/05/07 11:07:08;;;;;;;;;;;27.00;51.10;;;;;;5008471;28;19921;-77
2023/05/07 11:09:51;;;;;;;;;;;27.10;51.60;;;;;;5028858;28;19983;-77
2023/05/07 11:12:17;;;;;;;;;;;27.10;50.90;;;;;;5030288;28;19920;-77
2023/05/07 11:14:43;;;;;;;;;;;27.20;50.90;;;;;;5009977;28;19925;-77
2023/05/07 11:17:09;;;;;;;;;;;27.20;50.80;;;;;;4999601;28;19982;-77
2023/05/07 11:19:53;;;;;;;;;;;27.30;50.80;;;;;;5006271;28;19956;-77
2023/05/07 11:22:42;;;;;;;;;;;27.30;50.80;;;;;;5011136;28;19925;-77
2023/05/07 11:25:07;;;;;;;;;;;27.60;50.90;;;;;;5026816;28;20022;-78
2023/05/07 11:27:32;;;;;;;;;;;27.80;50.70;;;;;;5003252;28;20003;-78
2023/05/07 11:29:58;;;;;;;;;;;28.00;50.50;;;;;;5008747;28;19920;-79
2023/05/07 11:32:27;;;;;;;;;;;28.20;50.40;;;;;;5008700;28;20016;-78
2023/05/07 11:34:53;;;;;;;;;;;28.30;50.30;;;;;;5008321;28;19921;-77
2023/05/07 11:37:19;;;;;;;;;;;28.50;50.00;;;;;;5010049;28;19925;-77
2023/05/07 11:39:44;;;;;;;;;;;28.60;49.90;;;;;;5011182;28;20039;-77
2023/05/07 11:42:27;;;;;;;;;;;28.60;49.90;;;;;;5012695;28;20040;-78
2023/05/07 11:44:52;;;;;;;;;;;28.70;49.90;;;;;;5008724;28;19925;-77
2023/05/07 11:47:20;;;;;;;;;;;28.80;49.80;;;;;;5013017;28;19948;-77
2023/05/07 11:49:48;;;;;;;;;;;28.90;49.70;;;;;;5012667;28;19929;-78
2023/05/07 11:52:14;;;;;;;;;;;29.00;49.70;;;;;;5007881;28;20598;-78
2023/05/07 11:54:39;;;;;;;;;;;29.00;49.60;;;;;;5028345;28;19928;-77
2023/05/07 11:57:07;;;;;;;;;;;29.10;49.70;;;;;;5010731;28;20376;-78
2023/05/07 11:59:44;;;;;;;;;;;29.20;49.70;;;;;;5002238;28;20422;-78
2023/05/07 12:02:09;;;;;;;;;;;29.30;49.70;;;;;;5006374;28;19929;-75
2023/05/07 12:04:35;;;;;;;;;;;29.40;49.60;;;;;;5012459;28;20640;-79
2023/05/07 12:07:01;;;;;;;;;;;29.50;49.50;;;;;;5011012;28;19931;-78
2023/05/07 12:09:26;;;;;;;;;;;29.50;49.50;;;;;;4998160;28;19928;-78
2023/05/07 12:11:51;;;;;;;;;;;29.50;49.50;;;;;;5025465;28;19925;-77
2023/05/07 12:14:17;;;;;;;;;;;29.50;49.30;;;;;;5028102;28;19972;-78
2023/05/07 12:16:42;;;;;;;;;;;29.40;49.30;;;;;;5028219;28;19948;-78
2023/05/07 12:19:08;;;;;;;;;;;29.40;49.50;;;;;;5005016;28;20596;-77
2023/05/07 12:21:34;;;;;;;;;;;29.40;49.50;;;;;;5009897;28;20007;-78
2023/05/07 12:24:00;;;;;;;;;;;29.40;49.50;;;;;;5024849;28;19927;-78
2023/05/07 12:26:25;;;;;;;;;;;29.50;49.50;;;;;;5007726;28;19921;-77
2023/05/07 12:28:51;;;;;;;;;;;29.60;49.40;;;;;;5011565;28;19925;-78
2023/05/07 12:31:16;;;;;;;;;;;29.70;49.30;;;;;;5009827;28;19920;-76
2023/05/07 12:33:42;;;;;;;;;;;29.80;49.30;;;;;;5008046;28;20303;-76
2023/05/07 12:36:08;;;;;;;;;;;29.90;49.20;;;;;;5011614;28;19971;-76
2023/05/07 12:38:40;;;;;;;;;;;29.90;49.10;;;;;;5029551;28;19921;-75
2023/05/07 12:41:06;;;;;;;;;;;29.90;49.00;;;;;;4993534;28;20663;-76
2023/05/07 12:43:32;;;;;;;;;;;30.00;48.90;;;;;;5032425;28;19921;-75
2023/05/07 12:45:59;;;;;;;;;;;29.90;48.80;;;;;;4995922;28;20979;-76
2023/05/07 12:48:26;;;;;;;;;;;29.90;49.10;;;;;;5032060;28;19952;-75
2023/05/07 12:50:55;;;;;;;;;;;29.90;49.00;;;;;;5017315;28;19965;-76
2023/05/07 12:53:20;;;;;;;;;;;29.90;49.00;;;;;;5005228;28;19975;-75
2023/05/07 12:55:47;;;;;;;;;;;30.00;49.00;;;;;;5013701;28;19921;-76
2023/05/07 12:58:16;;;;;;;;;;;30.10;49.00;;;;;;5029329;28;19928;-77
2023/05/07 13:00:43;;;;;;;;;;;30.00;48.90;;;;;;5010714;28;20029;-74
2023/05/07 13:03:08;;;;;;;;;;;30.10;49.00;;;;;;5011408;28;20035;-78
2023/05/07 13:05:34;;;;;;;;;;;30.10;48.90;;;;;;5014510;28;19992;-76
2023/05/07 13:08:00;;;;;;;;;;;30.10;48.90;;;;;;5027518;28;19991;-77
2023/05/07 13:10:26;;;;;;;;;;;30.10;48.80;;;;;;5014351;28;19921;-77
2023/05/07 13:12:52;;;;;;;;;;;30.00;48.80;;;;;;5031143;28;19928;-77
2023/05/07 13:15:17;;;;;;;;;;;30.10;49.00;;;;;;5013901;28;19925;-76
2023/05/07 13:17:43;;;;;;;;;;;30.10;48.90;;;;;;4995669;28;19918;-76
2023/05/07 13:20:09;;;;;;;;;;;30.20;48.80;;;;;;5028512;28;19947;-77
2023/05/07 13:22:34;;;;;;;;;;;30.20;48.80;;;;;;5027326;28;19928;-78
2023/05/07 13:25:00;;;;;;;;;;;30.20;48.80;;;;;;5009436;28;19921;-77
2023/05/07 13:27:25;;;;;;;;;;;30.30;48.80;;;;;;5014041;28;20368;-77
2023/05/07 13:29:51;;;;;;;;;;;30.30;48.70;;;;;;5015712;28;19979;-76
2023/05/07 13:32:16;;;;;;;;;;;30.40;49.40;;;;;;5016266;28;19925;-77
2023/05/07 13:34:42;;;;;;;;;;;30.50;48.60;;;;;;5013932;28;19921;-77
2023/05/07 13:37:07;;;;;;;;;;;30.70;48.60;;;;;;4996607;28;19924;-78
2023/05/07 13:39:33;;;;;;;;;;;30.80;48.50;;;;;;5029200;28;19963;-76
2023/05/07 13:41:58;;;;;;;;;;;30.90;48.30;;;;;;5013948;28;19961;-77
2023/05/07 13:44:24;;;;;;;;;;;31.00;48.30;;;;;;5030075;28;20639;-77
2023/05/07 13:46:49;;;;;;;;;;;31.00;48.20;;;;;;4997913;28;19929;-77
2023/05/07 13:49:15;;;;;;;;;;;31.00;48.20;;;;;;4997416;28;19925;-76
2023/05/07 13:51:40;;;;;;;;;;;31.10;48.20;;;;;;5014310;28;20394;-76
2023/05/07 13:54:06;;;;;;;;;;;31.10;48.10;;;;;;5007170;28;19924;-78
2023/05/07 13:56:32;;;;;;;;;;;31.20;48.00;;;;;;5014000;28;20541;-76
2023/05/07 13:58:58;;;;;;;;;;;31.20;48.00;;;;;;5011409;28;19920;-78
2023/05/07 14:01:23;;;;;;;;;;;31.30;47.90;;;;;;5029202;28;19947;-77
2023/05/07 14:03:49;;;;;;;;;;;31.30;47.90;;;;;;5010165;28;19921;-78
2023/05/07 14:06:14;;;;;;;;;;;31.30;47.90;;;;;;5010989;28;20367;-77
2023/05/07 14:08:40;;;;;;;;;;;31.40;47.90;;;;;;5011828;28;19975;-76